sensor_id;sensor_type;location;lat;lon;timestamp;P1;durP1;ratioP1;P2;durP2;ratioP2
19089;SDS011;9677;50.656;13.064;2022-08-04T00:01:06;9.40;;;8.50;;
19089;SDS011;9677;50.656;13.064;2022-08-04T00:03:39;9.20;;;8.40;;
19089;SDS011;9677;50.656;13.064;2022-08-04T00:06:13;9.43;;;8.50;;
19089;SDS011;9677;50.656;13.064;2022-08-04T00:08:51;8.90;;;8.10;;
19089;SDS011;9677;50.656;13.064;2022-08-04T00:11:25;8.83;;;8.03;;
19089;SDS011;9677;50.656;13.064;2022-08-04T00:14:00;9.07;;;8.27;;
19089;SDS011;9677;50.656;13.064;2022-08-04T00:16:31;9.00;;;8.20;;
19089;SDS011;9677;50.656;13.064;2022-08-04T00:19:05;9.00;;;8.20;;
19089;SDS011;9677;50.656;13.064;2022-08-04T00:21:40;9.60;;;8.70;;
19089;SDS011;9677;50.656;13.064;2022-08-04T00:24:16;9.30;;;8.47;;
19089;SDS011;9677;50.656;13.064;2022-08-04T00:26:46;9.10;;;8.30;;
19089;SDS011;9677;50.656;13.064;2022-08-04T00:29:14;9.20;;;8.30;;
19089;SDS011;9677;50.656;13.064;2022-08-04T00:31:43;8.93;;;8.13;;
19089;SDS011;9677;50.656;13.064;2022-08-04T00:34:23;9.30;;;8.40;;
19089;SDS011;9677;50.656;13.064;2022-08-04T00:36:53;9.60;;;8.70;;
19089;SDS011;9677;50.656;13.064;2022-08-04T00:39:24;9.40;;;8.50;;
19089;SDS011;9677;50.656;13.064;2022-08-04T00:42:08;9.73;;;8.83;;
19089;SDS011;9677;50.656;13.064;2022-08-04T00:45:04;9.57;;;8.67;;
19089;SDS011;9677;50.656;13.064;2022-08-04T00:48:20;9.70;;;8.70;;
19089;SDS011;9677;50.656;13.064;2022-08-04T00:51:07;9.40;;;8.50;;
19089;SDS011;9677;50.656;13.064;2022-08-04T00:53:45;9.97;;;8.50;;
19089;SDS011;9677;50.656;13.064;2022-08-04T00:56:34;9.23;;;8.43;;
19089;SDS011;9677;50.656;13.064;2022-08-04T00:59:35;9.20;;;8.30;;
19089;SDS011;9677;50.656;13.064;2022-08-04T01:02:45;9.47;;;8.60;;
19089;SDS011;9677;50.656;13.064;2022-08-04T01:05:30;9.50;;;8.60;;
19089;SDS011;9677;50.656;13.064;2022-08-04T01:08:10;9.20;;;8.40;;
19089;SDS011;9677;50.656;13.064;2022-08-04T01:11:09;9.10;;;8.30;;
19089;SDS011;9677;50.656;13.064;2022-08-04T01:14:03;9.10;;;8.30;;
19089;SDS011;9677;50.656;13.064;2022-08-04T01:16:55;9.50;;;8.60;;
19089;SDS011;9677;50.656;13.064;2022-08-04T01:19:50;9.30;;;8.50;;
19089;SDS011;9677;50.656;13.064;2022-08-04T01:29:21;10.20;;;8.10;;
19089;SDS011;9677;50.656;13.064;2022-08-04T01:32:10;9.10;;;8.30;;
19089;SDS011;9677;50.656;13.064;2022-08-04T01:34:52;9.30;;;8.40;;
19089;SDS011;9677;50.656;13.064;2022-08-04T01:37:35;9.23;;;8.43;;
19089;SDS011;9677;50.656;13.064;2022-08-04T01:40:16;9.20;;;8.30;;
19089;SDS011;9677;50.656;13.064;2022-08-04T01:42:44;9.20;;;8.30;;
19089;SDS011;9677;50.656;13.064;2022-08-04T01:45:17;9.30;;;8.50;;
19089;SDS011;9677;50.656;13.064;2022-08-04T01:47:48;9.10;;;8.30;;
19089;SDS011;9677;50.656;13.064;2022-08-04T01:50:19;9.30;;;8.40;;
19089;SDS011;9677;50.656;13.064;2022-08-04T01:52:51;9.60;;;8.60;;
19089;SDS011;9677;50.656;13.064;2022-08-04T01:55:21;9.37;;;8.47;;
19089;SDS011;9677;50.656;13.064;2022-08-04T01:58:11;9.10;;;8.30;;
19089;SDS011;9677;50.656;13.064;2022-08-04T02:00:44;9.50;;;8.60;;
19089;SDS011;9677;50.656;13.064;2022-08-04T02:03:23;13.00;;;8.40;;
19089;SDS011;9677;50.656;13.064;2022-08-04T02:06:17;9.17;;;8.37;;
19089;SDS011;9677;50.656;13.064;2022-08-04T02:09:02;9.30;;;8.50;;
19089;SDS011;9677;50.656;13.064;2022-08-04T02:11:36;9.30;;;8.40;;
19089;SDS011;9677;50.656;13.064;2022-08-04T02:14:11;9.40;;;8.50;;
19089;SDS011;9677;50.656;13.064;2022-08-04T02:17:08;9.30;;;8.40;;
19089;SDS011;9677;50.656;13.064;2022-08-04T02:19:45;9.10;;;8.30;;
19089;SDS011;9677;50.656;13.064;2022-08-04T02:22:38;9.30;;;8.40;;
19089;SDS011;9677;50.656;13.064;2022-08-04T02:25:19;9.20;;;8.40;;
19089;SDS011;9677;50.656;13.064;2022-08-04T02:27:58;9.30;;;8.40;;
19089;SDS011;9677;50.656;13.064;2022-08-04T02:30:42;9.10;;;8.30;;
19089;SDS011;9677;50.656;13.064;2022-08-04T02:33:22;9.57;;;8.60;;
19089;SDS011;9677;50.656;13.064;2022-08-04T02:35:59;9.63;;;8.50;;
19089;SDS011;9677;50.656;13.064;2022-08-04T02:38:46;9.30;;;8.40;;
19089;SDS011;9677;50.656;13.064;2022-08-04T02:41:24;9.60;;;8.70;;
19089;SDS011;9677;50.656;13.064;2022-08-04T02:43:55;9.60;;;8.70;;
19089;SDS011;9677;50.656;13.064;2022-08-04T02:46:26;9.33;;;8.53;;
19089;SDS011;9677;50.656;13.064;2022-08-04T02:48:58;9.13;;;8.33;;
19089;SDS011;9677;50.656;13.064;2022-08-04T02:51:32;9.30;;;8.50;;
19089;SDS011;9677;50.656;13.064;2022-08-04T02:54:02;9.47;;;8.60;;
19089;SDS011;9677;50.656;13.064;2022-08-04T02:56:33;9.50;;;8.60;;
19089;SDS011;9677;50.656;13.064;2022-08-04T02:59:04;9.10;;;8.30;;
19089;SDS011;9677;50.656;13.064;2022-08-04T03:01:35;9.70;;;8.80;;
19089;SDS011;9677;50.656;13.064;2022-08-04T03:04:29;9.37;;;8.50;;
19089;SDS011;9677;50.656;13.064;2022-08-04T03:07:23;9.70;;;8.80;;
19089;SDS011;9677;50.656;13.064;2022-08-04T03:10:38;9.40;;;8.50;;
19089;SDS011;9677;50.656;13.064;2022-08-04T03:17:17;9.30;;;8.50;;
19089;SDS011;9677;50.656;13.064;2022-08-04T03:23:28;9.20;;;8.40;;
19089;SDS011;9677;50.656;13.064;2022-08-04T03:26:56;9.33;;;8.43;;
19089;SDS011;9677;50.656;13.064;2022-08-04T03:30:05;9.10;;;8.30;;
19089;SDS011;9677;50.656;13.064;2022-08-04T03:33:01;9.33;;;8.53;;
19089;SDS011;9677;50.656;13.064;2022-08-04T03:36:23;9.20;;;8.30;;
19089;SDS011;9677;50.656;13.064;2022-08-04T03:39:30;9.50;;;8.60;;
19089;SDS011;9677;50.656;13.064;2022-08-04T03:49:55;9.17;;;8.37;;
19089;SDS011;9677;50.656;13.064;2022-08-04T03:53:02;9.33;;;8.53;;
19089;SDS011;9677;50.656;13.064;2022-08-04T03:55:58;9.60;;;8.70;;
19089;SDS011;9677;50.656;13.064;2022-08-04T04:02:32;9.43;;;8.57;;
19089;SDS011;9677;50.656;13.064;2022-08-04T04:05:42;9.60;;;8.70;;
19089;SDS011;9677;50.656;13.064;2022-08-04T04:12:34;9.90;;;8.60;;
19089;SDS011;9677;50.656;13.064;2022-08-04T04:15:27;9.30;;;8.50;;
19089;SDS011;9677;50.656;13.064;2022-08-04T04:18:19;9.60;;;8.70;;
19089;SDS011;9677;50.656;13.064;2022-08-04T04:21:26;9.27;;;8.47;;
19089;SDS011;9677;50.656;13.064;2022-08-04T04:24:26;9.27;;;8.37;;
19089;SDS011;9677;50.656;13.064;2022-08-04T04:27:27;9.20;;;8.40;;
19089;SDS011;9677;50.656;13.064;2022-08-04T04:30:15;9.83;;;8.90;;
19089;SDS011;9677;50.656;13.064;2022-08-04T04:32:53;9.50;;;8.60;;
19089;SDS011;9677;50.656;13.064;2022-08-04T04:35:47;9.20;;;8.40;;
19089;SDS011;9677;50.656;13.064;2022-08-04T04:38:36;9.10;;;8.30;;
19089;SDS011;9677;50.656;13.064;2022-08-04T04:41:29;9.47;;;8.60;;
19089;SDS011;9677;50.656;13.064;2022-08-04T04:44:26;9.30;;;8.40;;
19089;SDS011;9677;50.656;13.064;2022-08-04T04:47:28;9.40;;;8.50;;
19089;SDS011;9677;50.656;13.064;2022-08-04T04:50:34;9.30;;;8.50;;
19089;SDS011;9677;50.656;13.064;2022-08-04T04:53:16;9.70;;;8.77;;
19089;SDS011;9677;50.656;13.064;2022-08-04T04:55:52;9.67;;;8.77;;
19089;SDS011;9677;50.656;13.064;2022-08-04T04:58:32;9.67;;;8.70;;
19089;SDS011;9677;50.656;13.064;2022-08-04T05:01:07;9.50;;;8.60;;
19089;SDS011;9677;50.656;13.064;2022-08-04T05:04:06;9.67;;;8.67;;
19089;SDS011;9677;50.656;13.064;2022-08-04T05:07:20;9.10;;;8.30;;
19089;SDS011;9677;50.656;13.064;2022-08-04T05:10:14;9.23;;;8.33;;
19089;SDS011;9677;50.656;13.064;2022-08-04T05:12:59;13.63;;;8.60;;
19089;SDS011;9677;50.656;13.064;2022-08-04T05:16:11;9.33;;;8.47;;
19089;SDS011;9677;50.656;13.064;2022-08-04T05:18:46;9.50;;;8.60;;
19089;SDS011;9677;50.656;13.064;2022-08-04T05:21:30;9.60;;;8.70;;
19089;SDS011;9677;50.656;13.064;2022-08-04T05:24:07;9.17;;;8.33;;
19089;SDS011;9677;50.656;13.064;2022-08-04T05:26:40;9.20;;;8.40;;
19089;SDS011;9677;50.656;13.064;2022-08-04T05:29:15;9.50;;;8.60;;
19089;SDS011;9677;50.656;13.064;2022-08-04T05:31:58;9.70;;;8.80;;
19089;SDS011;9677;50.656;13.064;2022-08-04T05:34:32;9.73;;;8.83;;
19089;SDS011;9677;50.656;13.064;2022-08-04T05:37:08;9.60;;;8.70;;
19089;SDS011;9677;50.656;13.064;2022-08-04T05:39:43;9.27;;;8.47;;
19089;SDS011;9677;50.656;13.064;2022-08-04T05:42:16;9.40;;;8.50;;
19089;SDS011;9677;50.656;13.064;2022-08-04T05:44:48;9.70;;;8.80;;
19089;SDS011;9677;50.656;13.064;2022-08-04T05:47:19;9.40;;;8.50;;
19089;SDS011;9677;50.656;13.064;2022-08-04T05:49:48;9.20;;;8.40;;
19089;SDS011;9677;50.656;13.064;2022-08-04T05:52:27;9.23;;;8.43;;
19089;SDS011;9677;50.656;13.064;2022-08-04T05:54:57;9.40;;;8.50;;
19089;SDS011;9677;50.656;13.064;2022-08-04T05:57:27;9.00;;;8.20;;
19089;SDS011;9677;50.656;13.064;2022-08-04T05:59:59;9.33;;;8.50;;
19089;SDS011;9677;50.656;13.064;2022-08-04T06:02:52;9.33;;;8.43;;
19089;SDS011;9677;50.656;13.064;2022-08-04T06:05:22;9.07;;;8.27;;
19089;SDS011;9677;50.656;13.064;2022-08-04T06:07:52;9.17;;;8.37;;
19089;SDS011;9677;50.656;13.064;2022-08-04T06:10:38;9.40;;;8.50;;
19089;SDS011;9677;50.656;13.064;2022-08-04T06:13:09;9.10;;;8.30;;
19089;SDS011;9677;50.656;13.064;2022-08-04T06:16:00;9.77;;;8.87;;
19089;SDS011;9677;50.656;13.064;2022-08-04T06:18:33;9.37;;;8.47;;
19089;SDS011;9677;50.656;13.064;2022-08-04T06:21:25;9.30;;;8.40;;
19089;SDS011;9677;50.656;13.064;2022-08-04T06:23:56;9.30;;;8.40;;
19089;SDS011;9677;50.656;13.064;2022-08-04T06:26:32;9.20;;;8.40;;
19089;SDS011;9677;50.656;13.064;2022-08-04T06:29:02;9.20;;;8.40;;
19089;SDS011;9677;50.656;13.064;2022-08-04T06:31:36;9.23;;;8.43;;
19089;SDS011;9677;50.656;13.064;2022-08-04T06:34:34;9.20;;;8.40;;
19089;SDS011;9677;50.656;13.064;2022-08-04T06:37:02;9.10;;;8.20;;
19089;SDS011;9677;50.656;13.064;2022-08-04T06:39:32;9.50;;;8.60;;
19089;SDS011;9677;50.656;13.064;2022-08-04T06:42:03;9.50;;;8.60;;
19089;SDS011;9677;50.656;13.064;2022-08-04T06:44:50;9.17;;;8.37;;
19089;SDS011;9677;50.656;13.064;2022-08-04T06:47:22;9.30;;;8.50;;
19089;SDS011;9677;50.656;13.064;2022-08-04T06:49:53;9.40;;;8.50;;
19089;SDS011;9677;50.656;13.064;2022-08-04T06:52:43;9.27;;;8.40;;
19089;SDS011;9677;50.656;13.064;2022-08-04T06:55:12;9.37;;;8.50;;
19089;SDS011;9677;50.656;13.064;2022-08-04T06:57:40;9.00;;;8.20;;
19089;SDS011;9677;50.656;13.064;2022-08-04T07:00:11;9.50;;;8.60;;
19089;SDS011;9677;50.656;13.064;2022-08-04T07:02:41;9.50;;;8.50;;
19089;SDS011;9677;50.656;13.064;2022-08-04T07:05:15;9.20;;;8.30;;
19089;SDS011;9677;50.656;13.064;2022-08-04T07:07:45;9.57;;;8.67;;
19089;SDS011;9677;50.656;13.064;2022-08-04T07:10:23;9.20;;;8.40;;
19089;SDS011;9677;50.656;13.064;2022-08-04T07:12:53;9.27;;;8.37;;
19089;SDS011;9677;50.656;13.064;2022-08-04T07:15:23;9.20;;;8.40;;
19089;SDS011;9677;50.656;13.064;2022-08-04T07:17:52;9.13;;;8.33;;
19089;SDS011;9677;50.656;13.064;2022-08-04T07:20:27;9.43;;;8.53;;
19089;SDS011;9677;50.656;13.064;2022-08-04T07:23:02;9.00;;;8.20;;
19089;SDS011;9677;50.656;13.064;2022-08-04T07:25:31;9.10;;;8.30;;
19089;SDS011;9677;50.656;13.064;2022-08-04T07:28:21;9.00;;;8.20;;
19089;SDS011;9677;50.656;13.064;2022-08-04T07:30:51;9.03;;;8.23;;
19089;SDS011;9677;50.656;13.064;2022-08-04T07:33:22;9.20;;;8.40;;
19089;SDS011;9677;50.656;13.064;2022-08-04T07:35:53;8.97;;;8.17;;
19089;SDS011;9677;50.656;13.064;2022-08-04T07:38:36;9.17;;;8.37;;
19089;SDS011;9677;50.656;13.064;2022-08-04T07:41:19;9.10;;;8.30;;
19089;SDS011;9677;50.656;13.064;2022-08-04T07:44:06;9.00;;;8.20;;
19089;SDS011;9677;50.656;13.064;2022-08-04T07:46:36;9.40;;;8.50;;
19089;SDS011;9677;50.656;13.064;2022-08-04T07:49:04;9.10;;;8.30;;
19089;SDS011;9677;50.656;13.064;2022-08-04T07:51:35;9.40;;;8.50;;
19089;SDS011;9677;50.656;13.064;2022-08-04T07:54:06;9.40;;;8.50;;
19089;SDS011;9677;50.656;13.064;2022-08-04T07:56:36;9.10;;;8.30;;
19089;SDS011;9677;50.656;13.064;2022-08-04T07:59:07;9.40;;;8.60;;
19089;SDS011;9677;50.656;13.064;2022-08-04T08:01:36;9.43;;;8.53;;
19089;SDS011;9677;50.656;13.064;2022-08-04T08:04:05;9.10;;;8.30;;
19089;SDS011;9677;50.656;13.064;2022-08-04T08:06:36;8.90;;;8.10;;
19089;SDS011;9677;50.656;13.064;2022-08-04T08:09:10;9.20;;;8.40;;
19089;SDS011;9677;50.656;13.064;2022-08-04T08:11:40;9.10;;;8.30;;
19089;SDS011;9677;50.656;13.064;2022-08-04T08:14:30;9.13;;;8.27;;
19089;SDS011;9677;50.656;13.064;2022-08-04T08:17:00;9.00;;;8.20;;
19089;SDS011;9677;50.656;13.064;2022-08-04T08:19:29;9.00;;;8.20;;
19089;SDS011;9677;50.656;13.064;2022-08-04T08:22:01;8.90;;;8.10;;
19089;SDS011;9677;50.656;13.064;2022-08-04T08:24:34;9.03;;;8.23;;
19089;SDS011;9677;50.656;13.064;2022-08-04T08:27:03;9.10;;;8.30;;
19089;SDS011;9677;50.656;13.064;2022-08-04T08:29:33;8.77;;;7.97;;
19089;SDS011;9677;50.656;13.064;2022-08-04T08:32:02;9.03;;;8.20;;
19089;SDS011;9677;50.656;13.064;2022-08-04T08:34:34;9.10;;;8.30;;
19089;SDS011;9677;50.656;13.064;2022-08-04T08:37:08;9.13;;;8.33;;
19089;SDS011;9677;50.656;13.064;2022-08-04T08:39:46;9.03;;;8.23;;
19089;SDS011;9677;50.656;13.064;2022-08-04T08:45:50;9.00;;;8.20;;
19089;SDS011;9677;50.656;13.064;2022-08-04T08:48:43;9.07;;;8.27;;
19089;SDS011;9677;50.656;13.064;2022-08-04T08:51:39;9.00;;;8.20;;
19089;SDS011;9677;50.656;13.064;2022-08-04T08:54:37;8.90;;;8.10;;
19089;SDS011;9677;50.656;13.064;2022-08-04T08:57:33;8.93;;;8.13;;
19089;SDS011;9677;50.656;13.064;2022-08-04T09:00:27;9.00;;;8.20;;
19089;SDS011;9677;50.656;13.064;2022-08-04T09:06:37;8.90;;;8.10;;
19089;SDS011;9677;50.656;13.064;2022-08-04T09:09:40;9.10;;;8.30;;
19089;SDS011;9677;50.656;13.064;2022-08-04T09:12:32;8.83;;;8.03;;
19089;SDS011;9677;50.656;13.064;2022-08-04T09:15:10;9.10;;;8.30;;
19089;SDS011;9677;50.656;13.064;2022-08-04T09:17:44;8.70;;;7.90;;
19089;SDS011;9677;50.656;13.064;2022-08-04T09:20:20;9.10;;;8.30;;
19089;SDS011;9677;50.656;13.064;2022-08-04T09:22:59;8.90;;;8.10;;
19089;SDS011;9677;50.656;13.064;2022-08-04T09:25:45;8.50;;;7.80;;
19089;SDS011;9677;50.656;13.064;2022-08-04T09:28:22;9.00;;;8.20;;
19089;SDS011;9677;50.656;13.064;2022-08-04T09:31:14;8.90;;;8.10;;
19089;SDS011;9677;50.656;13.064;2022-08-04T09:33:49;9.10;;;8.30;;
19089;SDS011;9677;50.656;13.064;2022-08-04T09:36:33;9.20;;;8.40;;
19089;SDS011;9677;50.656;13.064;2022-08-04T09:39:11;9.00;;;8.20;;
19089;SDS011;9677;50.656;13.064;2022-08-04T09:41:58;9.30;;;8.50;;
19089;SDS011;9677;50.656;13.064;2022-08-04T09:44:42;8.80;;;8.00;;
19089;SDS011;9677;50.656;13.064;2022-08-04T09:47:33;9.00;;;8.20;;
19089;SDS011;9677;50.656;13.064;2022-08-04T09:50:13;8.83;;;8.03;;
19089;SDS011;9677;50.656;13.064;2022-08-04T09:52:55;8.33;;;7.63;;
19089;SDS011;9677;50.656;13.064;2022-08-04T09:55:39;8.80;;;8.00;;
19089;SDS011;9677;50.656;13.064;2022-08-04T09:58:23;9.10;;;8.30;;
19089;SDS011;9677;50.656;13.064;2022-08-04T10:01:07;9.40;;;8.50;;
19089;SDS011;9677;50.656;13.064;2022-08-04T10:03:40;9.00;;;8.20;;
19089;SDS011;9677;50.656;13.064;2022-08-04T10:06:33;8.90;;;8.10;;
19089;SDS011;9677;50.656;13.064;2022-08-04T10:09:27;8.50;;;7.80;;
19089;SDS011;9677;50.656;13.064;2022-08-04T10:12:14;8.90;;;8.10;;
19089;SDS011;9677;50.656;13.064;2022-08-04T10:15:02;9.07;;;8.17;;
19089;SDS011;9677;50.656;13.064;2022-08-04T10:17:39;9.20;;;8.30;;
19089;SDS011;9677;50.656;13.064;2022-08-04T10:20:31;8.90;;;8.10;;
19089;SDS011;9677;50.656;13.064;2022-08-04T10:23:26;8.77;;;8.07;;
19089;SDS011;9677;50.656;13.064;2022-08-04T10:26:26;9.00;;;8.20;;
19089;SDS011;9677;50.656;13.064;2022-08-04T10:29:02;9.07;;;8.27;;
19089;SDS011;9677;50.656;13.064;2022-08-04T10:31:38;9.00;;;8.20;;
19089;SDS011;9677;50.656;13.064;2022-08-04T10:34:13;9.13;;;8.10;;
19089;SDS011;9677;50.656;13.064;2022-08-04T10:36:50;9.03;;;8.13;;
19089;SDS011;9677;50.656;13.064;2022-08-04T10:39:29;8.70;;;7.90;;
19089;SDS011;9677;50.656;13.064;2022-08-04T10:42:11;8.80;;;8.10;;
19089;SDS011;9677;50.656;13.064;2022-08-04T10:44:51;8.73;;;8.00;;
19089;SDS011;9677;50.656;13.064;2022-08-04T10:47:32;8.63;;;7.93;;
19089;SDS011;9677;50.656;13.064;2022-08-04T10:50:05;10.10;;;8.30;;
19089;SDS011;9677;50.656;13.064;2022-08-04T10:52:41;8.87;;;8.10;;
19089;SDS011;9677;50.656;13.064;2022-08-04T10:55:15;8.43;;;7.73;;
19089;SDS011;9677;50.656;13.064;2022-08-04T10:57:49;8.90;;;8.10;;
19089;SDS011;9677;50.656;13.064;2022-08-04T11:00:20;8.60;;;7.90;;
19089;SDS011;9677;50.656;13.064;2022-08-04T11:03:16;8.87;;;8.17;;
19089;SDS011;9677;50.656;13.064;2022-08-04T11:05:49;8.50;;;7.80;;
19089;SDS011;9677;50.656;13.064;2022-08-04T11:08:20;8.80;;;8.00;;
19089;SDS011;9677;50.656;13.064;2022-08-04T11:10:54;8.60;;;7.90;;
19089;SDS011;9677;50.656;13.064;2022-08-04T11:13:31;8.60;;;7.90;;
19089;SDS011;9677;50.656;13.064;2022-08-04T11:16:13;9.00;;;8.20;;
19089;SDS011;9677;50.656;13.064;2022-08-04T11:18:52;8.80;;;8.10;;
19089;SDS011;9677;50.656;13.064;2022-08-04T11:21:38;8.80;;;8.00;;
19089;SDS011;9677;50.656;13.064;2022-08-04T11:24:13;9.43;;;8.53;;
19089;SDS011;9677;50.656;13.064;2022-08-04T11:26:54;9.10;;;8.20;;
19089;SDS011;9677;50.656;13.064;2022-08-04T11:29:28;9.10;;;8.30;;
19089;SDS011;9677;50.656;13.064;2022-08-04T11:32:09;8.97;;;8.27;;
19089;SDS011;9677;50.656;13.064;2022-08-04T11:34:47;9.10;;;8.30;;
19089;SDS011;9677;50.656;13.064;2022-08-04T11:37:20;8.60;;;7.90;;
19089;SDS011;9677;50.656;13.064;2022-08-04T11:39:56;8.80;;;8.10;;
19089;SDS011;9677;50.656;13.064;2022-08-04T11:42:32;8.70;;;8.00;;
19089;SDS011;9677;50.656;13.064;2022-08-04T11:45:06;8.77;;;8.00;;
19089;SDS011;9677;50.656;13.064;2022-08-04T11:47:40;8.70;;;8.00;;
19089;SDS011;9677;50.656;13.064;2022-08-04T11:50:20;9.03;;;8.20;;
19089;SDS011;9677;50.656;13.064;2022-08-04T11:52:56;8.60;;;7.90;;
19089;SDS011;9677;50.656;13.064;2022-08-04T11:55:26;8.53;;;7.83;;
19089;SDS011;9677;50.656;13.064;2022-08-04T11:57:55;8.80;;;8.10;;
19089;SDS011;9677;50.656;13.064;2022-08-04T12:00:24;8.90;;;8.20;;
19089;SDS011;9677;50.656;13.064;2022-08-04T12:03:03;8.47;;;7.87;;
19089;SDS011;9677;50.656;13.064;2022-08-04T12:05:50;8.70;;;8.00;;
19089;SDS011;9677;50.656;13.064;2022-08-04T12:08:28;8.70;;;8.00;;
19089;SDS011;9677;50.656;13.064;2022-08-04T12:11:15;8.60;;;7.90;;
19089;SDS011;9677;50.656;13.064;2022-08-04T12:13:54;8.40;;;7.70;;
19089;SDS011;9677;50.656;13.064;2022-08-04T12:16:35;8.60;;;7.90;;
19089;SDS011;9677;50.656;13.064;2022-08-04T12:19:16;8.70;;;8.00;;
19089;SDS011;9677;50.656;13.064;2022-08-04T12:21:51;8.90;;;8.20;;
19089;SDS011;9677;50.656;13.064;2022-08-04T12:24:26;8.73;;;8.00;;
19089;SDS011;9677;50.656;13.064;2022-08-04T12:27:06;8.67;;;8.00;;
19089;SDS011;9677;50.656;13.064;2022-08-04T12:29:40;8.73;;;8.03;;
19089;SDS011;9677;50.656;13.064;2022-08-04T12:32:30;13.70;;;7.90;;
19089;SDS011;9677;50.656;13.064;2022-08-04T12:35:14;8.70;;;8.00;;
19089;SDS011;9677;50.656;13.064;2022-08-04T12:37:50;8.80;;;8.10;;
19089;SDS011;9677;50.656;13.064;2022-08-04T12:40:29;8.90;;;8.20;;
19089;SDS011;9677;50.656;13.064;2022-08-04T12:43:05;8.67;;;7.97;;
19089;SDS011;9677;50.656;13.064;2022-08-04T12:45:43;8.57;;;7.87;;
19089;SDS011;9677;50.656;13.064;2022-08-04T12:48:15;8.30;;;7.70;;
19089;SDS011;9677;50.656;13.064;2022-08-04T12:50:47;8.43;;;7.73;;
19089;SDS011;9677;50.656;13.064;2022-08-04T12:53:20;8.63;;;8.00;;
19089;SDS011;9677;50.656;13.064;2022-08-04T12:56:16;8.67;;;7.87;;
19089;SDS011;9677;50.656;13.064;2022-08-04T12:58:51;8.83;;;8.07;;
19089;SDS011;9677;50.656;13.064;2022-08-04T13:01:22;8.60;;;7.87;;
19089;SDS011;9677;50.656;13.064;2022-08-04T13:04:12;8.80;;;7.90;;
19089;SDS011;9677;50.656;13.064;2022-08-04T13:06:50;9.00;;;8.20;;
19089;SDS011;9677;50.656;13.064;2022-08-04T13:09:27;9.00;;;8.20;;
19089;SDS011;9677;50.656;13.064;2022-08-04T13:12:00;8.90;;;8.10;;
19089;SDS011;9677;50.656;13.064;2022-08-04T13:14:33;8.63;;;7.93;;
19089;SDS011;9677;50.656;13.064;2022-08-04T13:17:03;8.57;;;7.97;;
19089;SDS011;9677;50.656;13.064;2022-08-04T13:19:34;8.73;;;8.03;;
19089;SDS011;9677;50.656;13.064;2022-08-04T13:22:07;8.80;;;8.00;;
19089;SDS011;9677;50.656;13.064;2022-08-04T13:24:38;8.83;;;8.10;;
19089;SDS011;9677;50.656;13.064;2022-08-04T13:27:29;8.63;;;7.93;;
19089;SDS011;9677;50.656;13.064;2022-08-04T13:30:09;8.20;;;7.60;;
19089;SDS011;9677;50.656;13.064;2022-08-04T13:32:51;8.60;;;8.00;;
19089;SDS011;9677;50.656;13.064;2022-08-04T13:35:22;8.90;;;8.20;;
19089;SDS011;9677;50.656;13.064;2022-08-04T13:38:12;8.50;;;7.90;;
19089;SDS011;9677;50.656;13.064;2022-08-04T13:40:44;8.67;;;7.97;;
19089;SDS011;9677;50.656;13.064;2022-08-04T13:43:21;8.70;;;8.00;;
19089;SDS011;9677;50.656;13.064;2022-08-04T13:46:13;8.80;;;8.10;;
19089;SDS011;9677;50.656;13.064;2022-08-04T13:48:54;8.20;;;7.60;;
19089;SDS011;9677;50.656;13.064;2022-08-04T13:51:48;8.30;;;7.70;;
19089;SDS011;9677;50.656;13.064;2022-08-04T13:54:24;9.10;;;8.30;;
19089;SDS011;9677;50.656;13.064;2022-08-04T13:56:58;8.57;;;7.87;;
19089;SDS011;9677;50.656;13.064;2022-08-04T13:59:32;8.20;;;7.50;;
19089;SDS011;9677;50.656;13.064;2022-08-04T14:02:04;8.50;;;7.80;;
19089;SDS011;9677;50.656;13.064;2022-08-04T14:04:37;8.37;;;7.70;;
19089;SDS011;9677;50.656;13.064;2022-08-04T14:07:09;8.70;;;8.00;;
19089;SDS011;9677;50.656;13.064;2022-08-04T14:09:46;8.80;;;8.10;;
19089;SDS011;9677;50.656;13.064;2022-08-04T14:12:30;8.97;;;8.17;;
19089;SDS011;9677;50.656;13.064;2022-08-04T14:18:24;8.57;;;7.87;;
19089;SDS011;9677;50.656;13.064;2022-08-04T14:20:59;8.90;;;8.10;;
19089;SDS011;9677;50.656;13.064;2022-08-04T14:23:38;8.77;;;8.07;;
19089;SDS011;9677;50.656;13.064;2022-08-04T14:26:14;8.40;;;7.70;;
19089;SDS011;9677;50.656;13.064;2022-08-04T14:29:10;8.40;;;7.70;;
19089;SDS011;9677;50.656;13.064;2022-08-04T14:31:59;8.27;;;7.60;;
19089;SDS011;9677;50.656;13.064;2022-08-04T14:34:37;8.63;;;8.00;;
19089;SDS011;9677;50.656;13.064;2022-08-04T14:37:11;9.10;;;8.30;;
19089;SDS011;9677;50.656;13.064;2022-08-04T14:39:46;9.00;;;8.20;;
19089;SDS011;9677;50.656;13.064;2022-08-04T14:42:40;8.23;;;7.57;;
19089;SDS011;9677;50.656;13.064;2022-08-04T14:45:29;8.90;;;8.20;;
19089;SDS011;9677;50.656;13.064;2022-08-04T14:48:00;9.10;;;8.20;;
19089;SDS011;9677;50.656;13.064;2022-08-04T14:50:34;8.57;;;7.87;;
19089;SDS011;9677;50.656;13.064;2022-08-04T14:53:06;8.60;;;7.90;;
19089;SDS011;9677;50.656;13.064;2022-08-04T14:55:37;8.63;;;7.93;;
19089;SDS011;9677;50.656;13.064;2022-08-04T14:58:31;8.80;;;8.10;;
19089;SDS011;9677;50.656;13.064;2022-08-04T15:01:06;8.90;;;8.20;;
19089;SDS011;9677;50.656;13.064;2022-08-04T15:03:38;9.00;;;8.20;;
19089;SDS011;9677;50.656;13.064;2022-08-04T15:06:19;8.50;;;7.80;;
19089;SDS011;9677;50.656;13.064;2022-08-04T15:08:49;8.87;;;8.17;;
19089;SDS011;9677;50.656;13.064;2022-08-04T15:11:20;9.00;;;8.30;;
19089;SDS011;9677;50.656;13.064;2022-08-04T15:13:50;8.80;;;8.10;;
19089;SDS011;9677;50.656;13.064;2022-08-04T15:16:20;8.80;;;8.10;;
19089;SDS011;9677;50.656;13.064;2022-08-04T15:18:50;8.50;;;7.80;;
19089;SDS011;9677;50.656;13.064;2022-08-04T15:21:22;8.63;;;7.93;;
19089;SDS011;9677;50.656;13.064;2022-08-04T15:23:54;8.90;;;8.10;;
19089;SDS011;9677;50.656;13.064;2022-08-04T15:26:26;8.47;;;7.87;;
19089;SDS011;9677;50.656;13.064;2022-08-04T15:29:01;12.03;;;8.17;;
19089;SDS011;9677;50.656;13.064;2022-08-04T15:31:43;9.00;;;8.20;;
19089;SDS011;9677;50.656;13.064;2022-08-04T15:34:43;8.77;;;8.07;;
19089;SDS011;9677;50.656;13.064;2022-08-04T15:37:14;8.60;;;7.90;;
19089;SDS011;9677;50.656;13.064;2022-08-04T15:39:47;8.80;;;8.10;;
19089;SDS011;9677;50.656;13.064;2022-08-04T15:42:28;8.70;;;8.00;;
19089;SDS011;9677;50.656;13.064;2022-08-04T15:45:16;9.00;;;8.20;;
19089;SDS011;9677;50.656;13.064;2022-08-04T15:48:22;8.80;;;8.10;;
19089;SDS011;9677;50.656;13.064;2022-08-04T15:56:58;8.90;;;8.20;;
19089;SDS011;9677;50.656;13.064;2022-08-04T16:02:37;9.03;;;8.23;;
19089;SDS011;9677;50.656;13.064;2022-08-04T16:05:32;8.40;;;7.70;;
19089;SDS011;9677;50.656;13.064;2022-08-04T16:08:12;8.63;;;7.93;;
19089;SDS011;9677;50.656;13.064;2022-08-04T16:10:49;8.70;;;8.00;;
19089;SDS011;9677;50.656;13.064;2022-08-04T16:13:18;8.40;;;7.70;;
19089;SDS011;9677;50.656;13.064;2022-08-04T16:15:49;8.90;;;8.10;;
19089;SDS011;9677;50.656;13.064;2022-08-04T16:18:39;8.73;;;8.03;;
19089;SDS011;9677;50.656;13.064;2022-08-04T16:21:17;8.77;;;8.07;;
19089;SDS011;9677;50.656;13.064;2022-08-04T16:23:53;8.90;;;8.20;;
19089;SDS011;9677;50.656;13.064;2022-08-04T16:26:51;8.50;;;7.80;;
19089;SDS011;9677;50.656;13.064;2022-08-04T16:32:10;9.07;;;8.27;;
19089;SDS011;9677;50.656;13.064;2022-08-04T16:34:48;8.70;;;8.00;;
19089;SDS011;9677;50.656;13.064;2022-08-04T16:37:28;8.70;;;7.90;;
19089;SDS011;9677;50.656;13.064;2022-08-04T16:43:05;8.93;;;8.13;;
19089;SDS011;9677;50.656;13.064;2022-08-04T16:45:40;8.70;;;8.00;;
19089;SDS011;9677;50.656;13.064;2022-08-04T16:48:10;8.53;;;7.83;;
19089;SDS011;9677;50.656;13.064;2022-08-04T16:50:50;8.40;;;7.70;;
19089;SDS011;9677;50.656;13.064;2022-08-04T16:53:36;8.40;;;7.80;;
19089;SDS011;9677;50.656;13.064;2022-08-04T16:56:29;8.77;;;8.07;;
19089;SDS011;9677;50.656;13.064;2022-08-04T16:59:04;8.70;;;8.00;;
19089;SDS011;9677;50.656;13.064;2022-08-04T17:01:34;8.63;;;7.87;;